Date,TemperatureHighF,TemperatureAvgF,TemperatureLowF,DewpointHighF,DewpointAvgF,DewpointLowF,HumidityHigh,HumidityAvg,HumidityLow,PressureMaxIn,PressureMinIn,WindSpeedMaxMPH,WindSpeedAvgMPH,GustSpeedMaxMPH,PrecipitationSumIn
2013-1-1,43.0,40.0,30.5,31.9,30.6,18.6,78,69,60,30.02,29.85,11,1,11,0.00
2013-1-2,35.5,29.3,23.7,20.0,17.5,15.3,73,61,50,30.20,29.99,14,1,14,0.00
2013-1-3,36.4,28.9,22.4,23.2,18.5,15.9,80,66,45,30.21,30.09,10,1,10,0.00
2013-1-4,39.7,34.8,29.6,24.9,23.5,21.4,75,63,54,30.13,30.00,16,2,16,0.00
2013-1-5,43.2,34.5,29.1,27.3,23.7,21.1,81,65,49,30.34,30.06,12,1,12,0.00
2013-1-6,48.2,38.1,29.3,36.3,31.0,25.2,97,77,52,30.23,29.98,10,1,10,0.04
2013-1-7,48.6,38.9,28.6,34.3,29.2,25.2,89,69,47,30.41,30.07,13,1,13,0.00
2013-1-8,49.1,35.6,23.8,36.3,30.0,21.8,95,81,61,30.43,30.35,9,1,14,0.00
2013-1-9,51.7,41.5,27.9,42.7,35.9,26.3,96,81,65,30.39,30.15,12,1,12,0.00
2013-1-10,51.7,43.4,34.8,36.7,30.2,28.0,78,60,44,30.53,30.28,10,1,10,0.00
2013-1-11,48.0,40.7,31.9,45.3,36.1,27.4,97,84,73,30.51,30.06,9,0,9,0.42
2013-1-12,49.9,46.0,44.2,47.6,44.9,43.4,98,96,90,30.16,30.06,5,0,5,0.00
2013-1-13,52.1,47.7,43.9,50.4,46.8,43.4,98,97,92,30.14,29.98,5,0,5,0.01
2013-1-14,56.7,52.3,40.2,55.2,48.9,36.9,99,89,66,30.27,29.92,6,0,6,0.15
2013-1-15,40.2,38.5,35.4,38.0,34.6,32.0,95,86,75,30.34,30.19,6,0,6,0.27
2013-1-16,38.4,36.1,33.9,37.0,35.0,32.9,97,96,93,30.19,29.80,9,0,9,0.76
2013-1-17,43.9,39.6,35.9,37.4,33.2,30.3,95,78,63,30.10,29.93,15,1,15,0.00
2013-1-18,37.9,31.1,24.8,31.7,18.7,10.0,83,61,38,30.49,29.98,18,2,18,0.00
2013-1-19,53.7,40.6,26.3,31.8,27.1,15.7,78,60,40,30.42,29.93,23,4,23,0.00
2013-1-20,56.4,44.7,31.5,34.1,26.4,12.2,68,50,30,30.05,29.73,22,4,22,0.00
2013-1-21,34.6,28.8,25.0,25.6,14.6,11.3,92,55,44,30.11,29.85,13,1,13,0.00
2013-1-22,26.4,19.9,14.2,14.4,3.4,-2.3,64,49,36,30.26,29.87,20,3,20,0.00
2013-1-23,22.4,15.3,9.6,7.8,2.3,-2.2,83,57,43,30.30,30.18,14,2,14,0.00
2013-1-24,26.2,19.0,12.0,10.9,5.7,0.2,87,58,33,30.44,30.12,17,2,17,0.00
2013-1-25,23.9,17.4,7.8,16.3,6.6,0.3,91,64,42,30.46,30.07,11,1,11,0.00
2013-1-26,28.7,19.5,5.3,15.5,10.7,2.6,92,70,49,30.40,30.06,13,1,13,0.00
2013-1-27,37.1,24.3,11.9,18.9,14.1,7.6,87,66,43,30.56,30.40,11,1,11,0.00
2013-1-28,36.9,30.0,20.7,35.7,25.9,15.9,96,85,76,30.51,30.01,12,1,12,0.01
2013-1-29,51.2,43.7,33.6,46.9,41.1,32.5,97,91,82,30.14,30.01,9,1,9,0.00
2013-1-30,68.2,56.7,40.2,61.5,53.2,39.2,98,88,75,30.03,29.33,23,3,23,0.04
2013-1-31,63.9,46.0,30.1,60.5,32.7,12.6,93,61,38,29.84,29.06,35,6,35,0.68
2013-2-1,32.4,28.8,22.8,22.5,12.3,6.9,86,50,37,30.27,29.83,21,3,21,0.00
2013-2-2,30.8,24.7,17.4,23.2,11.3,6.6,91,58,40,30.33,30.04,16,2,16,0.00
2013-2-3,33.7,27.2,22.7,26.4,22.6,18.9,94,83,66,30.04,29.80,9,0,9,0.03
2013-2-4,31.5,26.9,21.2,25.0,14.8,11.9,90,61,47,30.04,29.85,16,2,16,0.00
2013-2-5,34.1,31.2,28.2,30.9,28.2,21.6,95,89,73,29.96,29.88,5,0,5,0.00
2013-2-6,41.1,32.7,24.3,31.1,25.8,19.3,96,77,50,30.35,29.91,8,1,12,0.01
2013-2-7,36.1,28.9,21.2,25.6,19.8,15.9,89,69,52,30.49,30.26,9,1,11,0.00
2013-2-8,39.6,35.4,31.7,36.9,33.3,25.6,96,92,74,30.27,29.65,13,2,13,0.46
2013-2-9,34.7,29.1,22.3,31.4,20.1,11.3,97,71,48,30.36,29.76,19,3,19,0.07
2013-2-10,43.6,28.7,13.9,24.7,15.8,9.2,84,60,35,30.50,30.31,7,0,7,0.01
2013-2-11,51.0,40.5,31.4,50.2,38.7,24.7,98,93,75,30.32,29.65,11,0,11,0.19
2013-2-12,48.9,42.4,30.5,41.8,29.7,24.8,93,61,45,29.98,29.75,19,2,19,0.00
2013-2-13,45.9,29.7,23.8,33.1,25.4,21.9,96,85,53,29.97,29.67,8,0,8,0.04
2013-2-14,48.9,39.0,31.0,37.7,32.6,29.9,97,79,52,30.01,29.71,10,1,10,0.16
2013-2-15,58.2,43.1,28.3,39.2,33.2,27.0,97,71,42,30.02,29.90,13,1,13,0.00
2013-2-16,41.7,36.3,31.2,35.3,28.8,16.9,94,75,55,29.97,29.74,10,1,10,0.03
2013-2-17,33.7,28.5,21.7,17.7,9.9,3.4,60,45,36,30.07,29.72,29,4,29,0.00
2013-2-18,38.7,28.1,19.6,15.2,10.0,3.7,56,47,34,30.31,30.07,20,3,20,0.00
2013-2-19,50.6,38.5,25.9,44.2,31.5,14.9,94,77,49,30.20,29.69,24,2,24,0.19
2013-2-20,37.5,31.1,25.5,28.6,16.5,11.6,70,55,42,30.05,29.77,22,3,22,0.00
2013-2-21,37.5,29.9,24.4,19.4,16.1,12.2,68,56,45,30.31,30.03,21,3,21,0.00
2013-2-22,39.2,31.3,23.2,31.8,23.5,15.8,93,73,61,30.41,30.24,10,1,10,0.00
2013-2-23,47.1,42.9,33.6,46.3,41.9,31.8,97,96,93,30.25,29.79,6,1,14,0.15
2013-2-24,49.4,39.8,32.0,42.0,32.5,22.6,97,77,55,30.02,29.75,10,2,18,0.01
2013-2-25,46.0,36.7,28.3,32.6,26.6,21.8,88,67,52,30.23,30.02,10,1,10,0.00
2013-2-26,46.0,35.5,24.8,38.7,30.1,23.1,95,82,61,30.26,29.79,24,3,24,0.28
2013-2-27,54.2,46.6,40.1,49.8,43.1,38.0,97,88,67,29.80,29.48,18,2,18,0.23
2013-2-28,48.0,43.8,36.2,38.7,34.1,27.7,85,69,48,29.65,29.56,12,1,12,0.00
2013-3-1,47.9,40.5,33.5,33.7,30.7,27.5,88,69,49,29.77,29.63,14,2,14,0.00
2013-3-18,38.1,36.7,35.7,37.1,35.4,33.9,96,95,93,30.07,29.91,9,3,18,0.40
2013-3-19,52.6,42.5,37.1,43.4,34.8,20.4,97,77,40,29.90,29.70,8,2,18,0.29
2013-3-20,48.6,37.9,31.7,26.1,20.9,17.8,62,51,30,29.93,29.79,17,2,17,0.00
2013-3-21,40.8,34.4,29.9,28.8,23.9,13.3,91,67,38,29.82,29.66,13,1,13,0.00
2013-3-22,43.2,31.8,28.3,23.8,19.0,13.4,70,59,43,29.94,29.80,18,2,18,0.00
2013-3-23,50.1,39.4,30.4,27.9,22.4,20.4,68,51,35,29.96,29.85,16,2,16,0.00
2013-3-24,48.4,38.6,24.7,28.3,23.7,19.5,83,57,37,29.99,29.69,9,1,9,0.00
2013-3-25,38.7,36.9,33.0,35.4,31.1,28.1,95,80,69,29.70,29.47,13,1,13,0.51
2013-3-26,52.9,43.3,35.2,37.9,33.5,27.8,95,71,40,29.90,29.63,11,1,11,0.02
2013-3-27,53.2,43.7,33.7,34.5,31.2,26.6,88,63,36,30.02,29.90,16,2,16,0.00
2013-3-28,49.7,43.3,34.3,34.9,31.0,28.5,82,63,47,30.14,30.01,12,1,14,0.00
2013-3-29,56.2,46.7,35.6,36.8,30.9,28.2,75,55,37,30.19,30.08,17,1,17,0.00
2013-3-30,60.2,46.1,32.1,36.8,30.7,24.9,90,59,27,30.20,30.08,11,1,11,0.00
2013-3-31,58.1,46.0,32.9,48.8,37.7,28.4,97,75,39,30.15,29.71,16,2,17,0.29
2013-4-1,64.3,51.6,38.7,48.1,43.3,17.5,97,76,39,29.94,29.64,18,2,19,0.00
2013-4-2,46.2,39.3,31.6,21.7,17.0,13.3,57,41,28,30.12,29.94,19,2,24,0.00
2013-4-3,48.5,39.8,30.1,22.2,17.1,12.8,58,40,28,30.32,30.12,19,3,19,0.00
2013-4-4,55.2,41.1,27.0,28.8,20.2,13.7,66,44,26,30.43,30.11,13,2,13,0.00
2013-4-5,64.8,44.1,38.3,43.0,32.9,23.2,95,70,22,30.10,29.73,15,1,15,0.07
2013-4-6,53.6,43.8,33.9,29.9,22.9,17.1,72,45,25,30.32,30.01,12,2,14,0.00
2013-4-7,64.4,49.9,35.5,45.9,37.2,29.6,83,64,37,30.33,29.99,21,3,23,0.00
2013-4-8,79.1,63.3,46.8,53.4,48.7,42.9,88,61,35,30.08,29.96,11,1,11,0.00
2013-4-9,84.3,72.1,60.8,57.7,52.8,46.3,77,53,28,30.00,29.89,18,2,18,0.00
2013-4-10,90.0,71.8,59.5,62.4,56.8,51.8,95,61,37,29.93,29.77,18,2,18,0.30
2013-4-11,67.9,61.1,48.9,64.6,57.6,45.1,98,89,75,29.97,29.77,19,2,19,0.00
2013-4-12,48.9,45.5,43.7,46.3,44.1,42.9,98,95,87,29.96,29.68,20,3,20,0.93
2013-4-13,61.7,51.2,40.0,49.2,41.0,36.9,98,72,41,29.97,29.75,10,1,12,0.00
2013-4-14,62.7,51.9,38.1,45.9,37.7,29.5,96,62,34,30.17,29.97,14,1,14,0.00
2013-4-15,61.1,51.9,45.7,43.0,38.3,33.7,79,60,48,30.36,30.17,13,2,14,0.00
2013-4-16,73.8,60.5,45.8,58.2,51.5,42.3,93,73,55,30.36,30.11,17,2,17,0.00
2013-4-17,75.0,62.7,51.4,57.7,50.2,39.9,92,67,32,30.28,30.09,9,1,9,0.00
2013-4-18,63.3,56.1,48.5,57.5,50.2,42.6,95,81,68,30.31,30.06,14,2,15,0.00
2013-4-19,79.3,63.3,57.3,67.0,59.9,54.2,97,89,62,30.07,29.62,24,2,24,0.19
2013-4-20,60.2,52.9,46.1,54.5,37.9,27.6,94,59,35,30.32,29.69,17,2,17,0.17
2013-4-21,56.1,45.7,34.7,34.6,28.1,22.6,79,51,34,30.62,30.32,11,2,11,0.00
2013-4-22,50.9,43.7,32.0,40.5,35.2,29.4,93,73,55,30.62,30.46,22,3,22,0.00
2013-4-23,49.4,45.6,42.2,44.5,39.9,35.8,91,80,73,30.46,30.13,15,2,15,0.00
2013-4-24,73.5,56.2,36.1,56.4,48.3,34.8,96,77,53,30.13,29.81,16,2,16,0.00
2013-4-25,66.0,56.1,43.5,56.0,36.8,28.3,83,51,26,30.27,29.88,20,2,20,0.00
2013-4-26,66.3,54.0,39.7,43.2,36.3,29.2,90,55,26,30.42,30.27,10,1,10,0.00
2013-4-27,70.8,56.0,38.8,44.6,36.4,32.1,89,52,26,30.44,30.28,9,1,9,0.00
2013-4-28,72.7,59.7,39.1,49.4,38.3,29.5,93,49,29,30.33,30.19,14,2,14,0.00
2013-4-29,57.6,54.3,52.1,56.2,51.8,42.7,96,92,65,30.22,30.14,12,2,12,0.26
2013-4-30,67.5,58.0,44.8,52.8,45.8,33.8,96,68,33,30.32,30.17,18,3,18,0.00
2013-5-1,67.3,53.0,38.9,47.7,41.0,33.6,94,67,33,30.47,30.32,17,2,17,0.00
2013-5-2,72.8,57.0,38.6,52.7,43.3,37.3,96,65,30,30.46,30.32,12,1,12,0.00
2013-5-3,63.3,53.8,43.4,45.6,42.4,38.1,92,68,40,30.43,30.34,16,3,16,0.00
2013-5-4,67.9,54.7,40.6,50.4,44.0,39.3,97,70,39,30.37,30.22,17,2,17,0.00
2013-5-5,63.1,51.0,38.6,46.7,42.3,37.0,96,74,50,30.29,30.20,15,2,15,0.00
2013-5-6,68.6,55.6,43.1,56.6,50.0,40.6,93,82,62,30.25,30.13,13,2,13,0.00
2013-5-7,69.6,59.2,51.5,63.2,56.2,49.8,97,90,73,30.15,30.04,12,2,12,0.15
2013-5-8,74.6,63.9,56.7,66.9,59.3,52.5,97,86,53,30.05,29.92,12,1,12,0.32
2013-5-9,73.0,61.8,55.5,61.5,56.5,53.2,98,84,57,29.98,29.89,9,0,9,0.71
2013-5-10,83.8,70.2,54.4,64.0,57.8,52.8,97,69,36,30.00,29.86,11,1,11,0.12
2013-5-11,79.4,67.2,62.8,67.6,63.6,61.3,97,89,61,29.92,29.69,13,2,13,0.42
2013-5-12,67.7,60.8,50.0,61.3,45.0,27.7,95,60,31,29.97,29.69,23,2,23,0.03
2013-5-13,57.8,50.5,40.6,38.3,33.2,25.4,86,53,33,30.13,29.97,17,2,17,0.00
2013-5-14,63.3,50.7,38.3,39.1,34.2,28.7,86,57,29,30.17,30.05,8,1,13,0.00
2013-5-15,74.6,61.8,50.0,60.6,50.3,35.4,87,67,53,30.08,29.69,13,2,13,0.00
2013-5-16,82.4,67.6,56.0,67.4,60.4,54.9,97,80,53,29.84,29.70,7,1,12,0.02
2013-5-17,76.8,65.5,55.6,61.2,48.8,44.0,89,56,34,30.18,29.84,7,1,10,0.00
2013-5-18,68.6,59.3,52.9,57.0,53.5,47.0,95,81,60,30.29,30.18,11,1,11,0.14
2013-5-19,62.0,59.4,56.3,61.1,58.2,54.9,98,96,93,30.27,30.15,11,2,11,0.10
2013-5-20,81.8,69.1,59.6,70.5,64.7,59.0,99,87,64,30.16,29.96,9,1,9,0.01
2013-5-21,84.0,73.8,64.4,72.4,68.2,63.2,98,84,64,29.98,29.85,13,2,13,0.00
2013-5-22,87.6,74.6,66.7,75.2,69.2,65.5,97,85,58,29.92,29.81,13,1,15,0.00
2013-5-23,81.8,72.0,69.6,72.9,68.8,66.6,95,90,66,29.89,29.74,19,2,19,0.20
2013-5-24,69.6,61.9,44.9,67.0,59.8,40.8,97,93,73,30.01,29.70,19,1,19,0.22
2013-5-25,61.8,53.8,45.0,44.5,40.4,35.2,91,63,41,30.06,29.97,22,3,22,0.02
2013-5-26,71.2,59.2,48.7,45.3,39.8,36.1,74,50,30,30.21,30.03,15,2,15,0.00
2013-5-27,75.8,61.0,40.1,50.4,43.1,37.8,95,57,28,30.27,30.14,11,1,11,0.00
2013-5-28,65.5,60.3,50.6,63.7,57.0,47.5,97,89,65,30.21,30.10,10,0,10,0.27
2013-5-29,90.3,74.7,57.2,72.1,65.1,56.6,98,75,48,30.11,30.01,14,1,14,0.00
2013-5-30,94.5,77.7,70.2,72.8,67.9,63.2,90,74,38,30.14,30.06,9,1,9,0.00
2013-5-31,93.3,82.4,69.5,73.8,67.1,58.7,93,63,33,30.13,29.99,13,2,15,0.00
2013-6-1,91.7,76.5,67.6,71.6,68.1,65.6,94,77,45,30.03,29.89,16,2,16,0.00
2013-6-2,90.2,78.3,72.4,72.7,69.4,66.8,88,75,51,29.91,29.78,16,3,21,0.00
2013-6-3,79.1,72.2,66.5,73.2,69.1,65.3,97,90,74,29.87,29.78,10,1,10,0.62
2013-6-4,78.6,67.2,56.0,65.3,51.3,45.0,97,59,33,30.10,29.86,10,1,10,0.00
2013-6-5,81.1,58.8,48.6,56.0,50.1,45.5,94,76,33,30.20,30.08,10,0,10,0.00
2013-6-6,75.2,60.6,54.7,62.8,56.7,52.7,98,88,49,30.13,29.96,15,1,15,0.05
2013-6-7,68.1,64.3,61.1,67.5,63.4,58.9,98,97,90,29.97,29.56,12,2,12,3.73
2013-6-8,80.3,69.1,59.5,68.8,63.6,58.4,98,84,62,30.06,29.56,12,1,12,0.11
2013-6-9,84.3,72.8,59.2,66.5,62.1,58.2,97,72,46,30.18,30.06,10,1,10,0.00
2013-6-10,74.1,69.6,64.6,73.2,67.9,62.7,97,94,82,30.14,29.78,9,1,10,1.73
2013-6-11,83.3,75.8,68.3,70.8,67.4,62.1,97,77,57,29.78,29.66,16,2,16,0.04
2013-6-12,83.8,74.1,66.7,65.3,61.2,58.7,83,66,44,29.84,29.75,13,1,13,0.00
2013-6-13,80.0,67.4,60.7,73.2,62.0,58.6,95,83,73,29.84,29.39,13,1,13,0.35
2013-6-14,78.2,62.9,55.3,64.0,56.8,52.7,95,82,51,29.91,29.49,9,1,10,0.10
2013-6-15,83.8,70.8,56.1,65.3,58.7,54.7,96,69,41,30.02,29.91,12,1,12,0.01
2013-6-16,83.0,65.5,57.8,67.4,60.4,56.1,95,85,51,30.00,29.81,18,1,18,0.00
2013-6-17,87.0,76.0,64.1,70.7,67.2,62.9,98,76,56,29.92,29.83,12,1,12,0.00
2013-6-18,80.9,71.6,63.1,71.3,67.1,61.7,97,86,67,29.90,29.79,9,1,9,0.37
2013-6-19,80.8,69.5,60.2,63.2,58.3,50.6,98,71,38,30.16,29.85,9,1,9,0.00
2013-6-20,81.0,68.4,53.7,63.5,57.8,52.3,97,72,44,30.27,30.16,9,1,10,0.00
2013-6-21,84.2,71.3,54.8,63.4,56.6,52.0,94,62,41,30.31,30.23,10,1,10,0.00
2013-6-22,88.0,78.3,56.3,68.5,64.3,54.8,96,64,46,30.26,30.11,10,2,10,0.00
2013-6-23,87.1,79.6,61.8,74.2,70.6,58.9,96,75,59,30.20,30.05,12,2,13,0.21
2013-6-24,93.1,78.8,68.6,77.9,72.0,64.5,98,81,50,30.08,29.98,13,1,13,0.12
2013-6-25,92.8,78.4,66.8,76.5,70.6,65.0,96,79,49,30.00,29.83,12,1,13,0.00
2013-6-26,91.3,75.8,69.7,75.4,68.5,65.3,96,79,48,29.87,29.76,13,1,13,0.33
2013-6-27,89.6,78.5,71.7,77.2,73.0,70.5,97,85,61,29.81,29.56,16,2,18,0.94
2013-6-28,88.3,76.9,70.3,73.7,70.9,67.3,96,83,57,29.58,29.47,13,2,13,0.06
2013-6-29,89.0,77.4,66.4,73.0,68.7,65.2,98,77,48,29.69,29.48,12,1,12,0.00
2013-6-30,84.3,75.9,71.2,77.1,72.8,69.8,97,90,75,29.89,29.69,12,1,12,0.16
2013-7-1,79.3,74.7,73.0,76.4,72.8,71.2,96,94,88,30.03,29.87,9,1,11,0.21
2013-7-2,85.4,76.9,72.8,76.8,73.5,71.3,96,90,69,30.18,30.02,14,2,14,0.42
2013-7-3,86.9,77.0,70.3,79.9,74.0,69.1,98,91,71,30.24,30.16,10,1,10,0.27
2013-7-4,90.0,81.3,74.3,77.9,74.5,72.2,98,81,58,30.25,30.16,14,2,14,0.01
2013-7-5,91.8,78.4,72.1,77.7,73.4,70.9,96,86,55,30.21,30.09,13,1,13,0.00
2013-7-6,95.0,85.7,75.7,79.1,75.2,73.0,94,72,53,30.15,30.02,11,2,12,0.00
2013-7-7,94.0,84.0,73.5,78.1,74.4,70.4,93,74,54,30.07,29.94,13,2,13,0.01
2013-7-8,87.5,75.9,71.0,75.7,70.5,67.5,93,84,62,30.06,29.98,8,0,9,0.33
2013-7-9,88.9,80.7,69.0,76.0,72.7,67.5,96,77,59,30.07,29.98,8,1,10,0.00
2013-7-10,88.6,79.5,73.5,77.7,74.0,71.9,96,84,61,30.00,29.81,18,1,18,0.00
2013-7-11,90.2,80.3,74.6,75.1,72.5,64.6,94,78,54,29.90,29.81,13,1,13,0.02
2013-7-12,77.0,72.8,68.8,71.0,68.0,63.8,96,85,69,30.04,29.90,14,1,14,0.64
2013-7-13,89.5,77.3,69.5,78.2,73.8,68.3,98,90,64,30.27,30.03,11,1,11,0.15
2013-7-14,92.3,82.3,73.1,78.5,74.8,72.2,98,80,56,30.34,30.24,8,1,8,0.01
2013-7-15,97.2,81.8,72.7,78.5,74.7,71.5,97,81,49,30.27,30.12,7,0,7,0.00
2013-7-16,96.0,84.9,74.3,75.5,72.8,68.9,93,69,44,30.19,30.12,11,1,11,0.00
2013-7-17,99.3,86.7,72.4,78.4,73.6,68.6,97,69,39,30.18,30.06,4,0,6,0.00
2013-7-18,100.5,87.9,75.7,81.1,76.7,72.0,92,71,49,30.08,29.94,5,0,5,0.00
2013-7-19,96.5,88.7,80.7,81.6,78.4,75.5,92,73,55,29.98,29.81,14,3,14,0.00
2013-7-20,93.8,85.6,74.9,77.1,74.0,69.3,89,69,55,29.84,29.74,15,2,15,0.01
2013-7-21,92.3,77.9,71.6,79.2,73.1,70.0,95,86,62,29.94,29.83,10,1,10,0.09
2013-7-22,89.7,77.6,71.2,78.2,73.6,69.7,97,88,65,29.93,29.76,12,1,12,1.81
2013-7-23,87.5,78.1,71.1,77.1,73.8,70.0,98,87,67,29.76,29.57,16,1,16,1.63
2013-7-24,83.7,76.3,67.1,72.1,68.0,57.3,93,76,63,29.92,29.63,9,0,9,0.00
2013-7-25,70.5,66.3,62.2,61.6,58.8,55.2,88,77,71,30.03,29.91,10,0,10,0.00
2013-7-26,85.4,72.8,63.3,67.1,62.9,59.9,93,73,46,30.04,29.98,8,0,8,0.00
2013-7-27,86.1,74.2,61.8,72.4,65.3,60.7,97,76,48,30.05,29.93,11,1,11,0.00
2013-7-28,84.5,72.4,66.7,74.7,68.9,64.0,96,89,71,29.98,29.87,11,1,11,0.76
2013-7-29,86.1,71.2,63.5,71.1,65.8,55.6,98,86,40,30.11,29.94,7,0,8,0.10
2013-7-30,84.3,71.8,59.0,64.3,60.8,57.3,95,71,45,30.18,30.10,7,0,8,0.00
2013-7-31,83.8,65.9,59.2,68.1,61.1,58.1,97,86,50,30.16,30.03,9,0,9,0.00
2013-8-1,72.7,69.5,66.3,70.9,67.2,63.9,97,92,82,30.03,29.82,10,1,10,0.81
2013-8-2,87.1,76.7,66.7,71.6,67.5,62.5,98,76,45,29.93,29.80,12,1,12,0.00
2013-8-3,80.8,72.7,67.1,69.2,67.5,64.6,96,84,63,29.93,29.86,10,1,10,0.01
2013-8-4,80.8,71.4,62.8,66.2,61.6,56.4,98,74,45,29.99,29.85,10,1,12,0.00
2013-8-5,80.8,69.0,57.8,60.2,56.6,52.3,90,67,39,30.08,29.98,4,0,7,0.00
2013-8-6,81.2,68.4,55.6,66.0,60.9,54.5,97,79,49,30.11,30.03,12,1,12,0.00
2013-8-7,77.8,71.6,66.5,70.7,67.6,63.9,93,87,73,30.12,30.04,13,1,13,0.02
2013-8-8,88.2,77.4,70.2,76.9,72.6,69.0,97,86,66,30.05,29.97,12,1,12,0.20
2013-8-9,85.6,79.0,74.8,78.8,75.1,72.0,95,88,74,30.00,29.80,12,2,15,0.14
2013-8-10,85.7,77.0,69.6,74.3,68.3,64.6,96,76,52,30.03,29.86,7,0,7,0.00
2013-8-11,86.2,74.9,60.9,70.4,64.7,59.5,96,73,49,30.12,29.99,8,1,8,0.00
2013-8-12,86.0,75.4,67.2,74.1,70.1,66.0,97,85,58,30.02,29.91,7,0,7,0.00
2013-8-13,82.8,74.0,68.8,74.0,70.7,67.9,98,90,68,29.91,29.70,7,0,7,0.69
2013-8-14,75.7,68.5,57.3,70.0,56.2,50.1,91,66,49,30.05,29.75,17,1,17,0.00
2013-8-15,80.8,67.1,52.7,60.3,54.9,47.2,96,69,38,30.16,30.05,8,0,8,0.00
2013-8-16,82.8,68.1,53.4,62.5,56.6,52.1,97,70,38,30.20,30.12,9,0,9,0.00
2013-8-17,83.6,69.2,55.0,65.9,59.2,53.9,97,74,45,30.27,30.20,8,1,8,0.00
2013-8-18,79.3,68.9,61.2,66.4,62.5,59.0,94,81,61,30.25,30.12,5,0,5,0.01
2013-8-19,79.4,70.5,61.4,68.3,63.5,59.8,97,80,53,30.15,30.04,9,0,9,0.00
2013-8-20,90.0,75.4,61.9,72.7,67.0,61.0,97,77,49,30.13,30.06,8,0,8,0.00
2013-8-21,91.6,78.5,64.3,73.3,68.1,61.7,97,74,40,30.18,30.06,7,0,7,0.00
2013-8-22,83.5,74.3,70.6,74.9,71.5,69.2,97,91,73,30.07,29.89,10,1,10,1.44
2013-8-23,78.0,71.9,64.3,70.1,66.0,62.1,97,83,61,30.08,29.89,6,0,6,0.00
2013-8-24,82.8,69.6,58.2,63.1,58.2,52.0,97,70,38,30.35,30.08,11,0,11,0.00
2013-8-25,83.4,68.9,53.7,64.4,56.9,52.6,97,70,38,30.41,30.25,9,1,9,0.00
2013-8-26,84.8,73.7,63.9,68.8,63.9,56.7,88,72,54,30.26,29.92,13,2,13,0.00
2013-8-27,90.5,79.1,70.9,73.7,69.7,67.0,93,74,53,29.93,29.85,13,1,13,0.01
2013-8-28,78.5,72.6,67.3,74.8,71.0,66.1,98,95,82,29.89,29.82,4,0,4,0.32
2013-8-29,82.8,73.6,68.3,72.5,69.8,65.8,98,88,67,30.02,29.85,12,1,12,0.00
2013-8-30,82.8,74.2,66.5,73.2,69.5,64.7,97,86,71,30.02,29.86,15,1,15,0.00
2013-8-31,87.2,78.6,71.3,76.7,72.6,68.8,94,82,67,29.89,29.78,11,2,11,0.00
2013-9-1,90.5,78.9,71.6,76.4,73.1,70.2,96,83,57,29.85,29.75,11,1,11,0.00
2013-9-2,81.5,75.3,71.9,75.7,73.1,70.2,98,93,75,29.78,29.70,6,0,6,0.13
2013-9-3,84.3,74.5,67.4,74.5,66.0,58.7,98,77,49,29.90,29.70,9,1,9,0.00
2013-9-4,83.3,71.0,59.9,62.9,59.5,56.8,92,69,42,30.02,29.89,10,1,10,0.00
2013-9-5,81.5,69.4,55.4,66.5,58.4,48.4,90,70,44,30.13,29.95,11,0,11,0.00
2013-9-6,75.0,62.5,52.2,53.6,48.6,40.4,92,63,30,30.25,30.13,6,0,11,0.00
2013-9-7,81.0,65.1,47.0,59.6,52.7,45.9,97,69,36,30.14,29.91,8,1,8,0.00
2013-9-8,83.7,72.0,62.3,68.7,61.3,48.1,94,71,51,30.07,29.83,6,1,7,0.00
2013-9-9,76.7,65.1,50.8,61.8,55.9,47.9,92,73,54,30.22,30.07,11,1,11,0.00
2013-9-10,87.3,76.2,65.4,75.9,70.4,61.8,94,83,67,30.18,30.06,10,1,12,0.00
2013-9-11,93.4,82.3,73.1,79.8,74.5,71.3,95,79,56,30.12,29.98,13,1,13,0.00
2013-9-12,87.8,79.8,70.1,77.9,72.5,68.0,97,80,64,30.00,29.69,15,2,15,0.58
2013-9-13,76.8,68.6,60.1,70.0,62.0,51.8,98,81,56,29.87,29.65,13,1,13,0.11
2013-9-14,67.1,58.4,49.1,53.1,49.9,46.5,94,74,57,30.15,29.87,12,1,12,0.00
2013-9-15,74.3,60.3,44.4,56.1,50.5,43.0,97,73,43,30.24,30.09,10,1,10,0.00
2013-9-16,74.9,62.3,57.0,61.5,57.0,51.0,96,84,57,30.23,30.04,9,0,9,0.04
2013-9-17,67.9,56.4,44.6,51.0,44.7,39.8,93,67,40,30.43,30.23,11,1,11,0.00
2013-9-18,72.8,57.1,40.6,52.7,46.3,39.5,97,71,42,30.36,30.19,9,1,9,0.00
2013-9-19,77.7,53.1,44.5,59.1,48.7,43.4,97,87,43,30.21,30.07,8,0,8,0.00
2013-9-20,80.8,64.5,49.3,65.0,56.7,48.2,97,78,50,30.10,29.98,8,1,8,0.00
2013-9-21,80.8,66.0,50.3,67.6,59.3,49.5,98,82,45,30.01,29.66,16,2,16,0.93
2013-9-22,71.9,64.1,54.3,66.8,57.6,46.2,98,82,47,29.92,29.66,12,1,12,0.54
2013-9-23,68.7,57.6,48.5,50.4,46.0,43.1,86,66,47,30.05,29.92,13,1,13,0.00
2013-9-24,74.2,57.5,43.9,53.8,48.2,41.5,93,73,46,30.08,29.90,9,0,9,0.00
2013-9-25,76.8,58.6,44.5,54.5,49.7,43.2,97,76,40,29.97,29.87,5,0,5,0.00
2013-9-26,73.8,59.4,47.6,60.7,54.3,46.6,98,85,56,30.09,29.93,7,0,7,0.00
2013-9-27,72.0,62.0,53.0,60.3,55.6,51.0,97,81,54,30.26,30.09,6,0,6,0.00
2013-9-28,74.4,61.5,50.4,59.0,54.0,48.5,97,79,47,30.32,30.22,6,1,10,0.00
2013-9-29,72.8,59.3,47.0,61.2,52.9,45.9,98,81,52,30.22,30.07,11,0,11,0.00
2013-9-30,77.0,60.4,46.4,58.4,52.6,45.6,98,79,43,30.09,29.98,5,0,5,0.00
2013-10-1,82.4,65.3,50.8,66.1,58.0,49.9,98,80,51,30.03,29.91,10,0,10,0.00
2013-10-2,85.4,69.3,54.0,66.7,61.2,53.2,98,78,49,30.03,29.93,10,0,10,0.00
2013-10-3,82.3,69.4,56.5,66.5,60.8,55.6,98,76,46,30.12,30.01,7,0,7,0.00
2013-10-4,87.5,72.0,58.2,70.3,64.1,57.1,97,78,52,30.07,29.97,9,1,9,0.00
2013-10-5,87.9,74.0,63.8,72.6,67.6,62.6,97,82,57,30.07,30.00,9,1,9,0.00
2013-10-6,82.8,70.7,65.2,72.9,67.2,63.9,98,89,71,30.07,29.96,9,1,9,0.00
2013-10-7,80.7,67.2,57.5,72.8,64.9,52.1,97,93,69,30.01,29.77,20,2,20,0.52
2013-10-8,68.4,54.3,50.3,52.3,49.6,47.6,95,85,51,30.31,30.01,8,0,8,0.00
2013-10-9,62.1,56.5,50.9,53.3,49.5,46.3,95,77,68,30.35,30.24,10,1,25,0.00
2013-10-10,62.6,57.7,53.4,59.1,54.8,51.2,96,90,80,30.25,30.01,14,1,14,0.19
2013-10-11,64.8,61.8,59.5,62.1,59.9,57.4,97,93,86,30.04,29.96,13,1,13,1.07
2013-10-12,71.4,64.6,60.5,60.6,55.9,48.8,87,74,61,30.22,30.02,18,2,18,0.00
2013-10-13,67.9,61.7,49.7,57.2,53.8,48.0,94,76,60,30.36,30.21,16,3,16,0.00
2013-10-14,71.7,56.6,45.5,57.5,51.1,44.7,98,83,54,30.36,30.23,7,0,7,0.00
2013-10-15,74.4,56.8,45.1,58.5,48.6,42.5,98,78,36,30.26,30.11,10,1,10,0.00
2013-10-16,70.7,61.3,51.0,61.8,57.5,49.3,96,88,71,30.11,29.91,6,0,7,0.00
2013-10-17,73.7,66.4,60.8,64.9,62.5,59.7,96,88,72,29.92,29.70,10,1,10,0.00
2013-10-18,68.8,59.7,45.8,64.5,48.7,43.0,91,68,48,30.01,29.70,11,1,11,0.00
2013-10-19,65.0,53.0,40.9,56.0,47.7,39.8,97,84,58,30.01,29.78,9,1,9,0.04
2013-10-20,64.2,53.4,41.7,53.6,43.0,38.8,95,70,40,30.09,29.80,7,1,12,0.00
2013-10-21,68.3,52.8,37.7,49.7,42.0,36.6,97,71,37,30.18,29.99,12,1,12,0.00
2013-10-22,69.2,55.0,42.6,54.5,47.1,36.8,97,76,53,29.99,29.78,12,1,12,0.00
2013-10-23,57.1,47.9,39.8,45.8,40.6,36.1,92,76,57,29.83,29.62,10,0,10,0.01
2013-10-24,55.1,45.9,39.2,38.1,34.0,28.7,86,65,39,30.08,29.80,16,1,16,0.00
2013-10-25,56.6,45.0,36.8,39.3,34.1,30.7,87,67,44,30.28,30.07,11,1,11,0.00
2013-10-26,57.0,44.7,31.8,37.6,33.5,29.7,93,68,38,30.28,29.93,18,2,18,0.00
2013-10-27,60.2,49.7,37.5,40.0,35.7,33.4,85,60,40,30.16,29.91,12,1,12,0.00
2013-10-28,65.2,46.4,31.8,44.1,37.4,30.3,96,75,41,30.32,30.16,10,0,10,0.00
2013-10-29,62.7,48.0,37.2,47.1,40.4,34.5,95,77,49,30.41,30.32,9,0,9,0.00
2013-10-30,58.9,47.0,39.9,54.1,44.8,38.2,96,92,82,30.36,30.20,5,0,5,0.01
2013-10-31,69.7,60.1,50.0,62.9,56.3,49.0,98,88,73,30.24,29.81,9,1,14,0.02
2013-11-1,71.9,65.0,53.2,64.8,60.1,52.0,97,85,70,29.81,29.58,25,3,25,0.17
2013-11-2,71.0,58.7,50.6,58.7,49.5,41.4,98,74,44,29.81,29.63,9,0,9,0.00
2013-11-3,54.7,46.5,34.5,43.7,34.8,22.3,89,65,38,30.48,29.81,11,1,11,0.00
2013-11-4,48.7,38.0,29.4,30.0,24.5,20.2,84,60,35,30.66,30.48,10,1,10,0.00
2013-11-5,61.5,39.5,32.9,45.1,33.9,28.5,94,81,52,30.66,30.49,9,0,9,0.00
2013-11-6,67.8,52.8,36.2,55.6,46.6,34.8,97,81,57,30.50,30.07,10,1,10,0.00
2013-11-7,62.7,55.3,39.6,59.5,51.6,35.7,94,87,75,30.07,29.79,11,2,16,0.07
2013-11-8,51.4,44.0,36.7,39.7,31.5,28.1,87,62,45,30.27,29.98,17,1,17,0.00
2013-11-9,52.4,42.0,30.2,34.8,30.4,26.7,90,66,40,30.34,30.01,14,1,14,0.00
2013-11-10,62.8,49.4,36.2,40.4,34.1,29.4,89,58,37,30.12,29.87,20,2,20,0.00
2013-11-11,55.7,48.7,37.0,38.7,32.6,28.5,74,54,40,30.26,30.00,15,2,15,0.00
2013-11-12,50.5,38.7,28.7,39.7,27.2,18.1,88,64,48,30.35,29.96,17,2,17,0.01
2013-11-13,41.9,30.3,26.4,21.8,17.1,13.8,79,58,36,30.43,30.33,12,1,12,0.00
2013-11-14,56.5,36.6,26.2,26.7,21.3,13.7,81,58,19,30.34,30.21,15,2,15,0.00
2013-11-15,59.7,42.9,28.1,36.5,29.8,24.3,90,63,28,30.28,30.18,8,1,8,0.00
2013-11-16,58.1,48.0,39.7,49.4,44.2,34.0,95,87,70,30.36,30.26,9,0,9,0.03
2013-11-17,67.7,58.0,49.1,60.8,54.7,47.5,95,89,75,30.26,29.78,9,1,9,0.00
2013-11-18,68.0,61.3,50.6,63.1,43.1,27.8,95,55,27,29.84,29.64,19,3,19,0.20
2013-11-19,50.5,44.1,33.7,30.2,27.2,23.6,68,52,41,30.38,29.84,20,2,20,0.00
2013-11-20,46.8,32.0,25.4,26.1,21.6,10.8,86,67,24,30.61,30.38,9,0,9,0.00
2013-11-21,54.7,42.5,26.8,42.3,33.3,19.7,84,70,58,30.62,30.40,9,0,9,0.00
2013-11-22,57.3,50.4,47.4,51.3,46.4,42.0,93,86,78,30.40,29.95,12,1,12,0.01
2013-11-23,52.8,44.9,30.8,50.5,33.6,18.6,92,65,42,30.09,29.95,18,2,18,0.00
2013-11-24,31.2,26.7,23.4,18.2,5.5,2.8,59,40,32,30.46,30.09,23,3,23,0.00
2013-11-25,35.4,28.5,21.0,20.0,14.1,7.3,71,55,43,30.55,30.37,13,2,13,0.00
2013-11-26,54.7,34.7,31.8,53.6,25.4,19.8,97,69,54,30.38,29.67,15,1,15,0.57
2013-11-27,63.7,45.2,33.3,62.2,42.3,22.2,97,90,62,29.86,29.39,22,3,22,1.31
2013-11-28,38.7,32.0,26.6,22.7,19.2,16.4,76,59,42,30.50,29.86,18,2,18,0.00
2013-11-29,42.0,31.9,22.1,29.9,22.3,18.6,94,69,45,30.75,30.49,5,0,10,0.00
2013-11-30,40.4,27.5,22.8,30.3,19.8,14.7,85,73,60,30.76,30.38,13,0,13,0.00
2013-12-1,50.1,40.0,27.3,36.0,31.9,25.2,95,74,51,30.38,30.04,7,0,7,0.00
2013-12-2,52.0,40.4,31.1,36.2,32.9,28.0,91,76,48,30.04,29.89,3,0,3,0.00
2013-12-3,55.2,42.3,33.5,43.8,36.4,31.2,93,81,49,30.02,29.89,7,0,7,0.00
2013-12-4,54.2,44.0,32.9,45.8,39.3,30.7,95,84,69,30.13,30.02,4,0,4,0.00
2013-12-5,59.7,54.5,48.3,58.8,52.6,45.4,97,93,88,30.12,29.94,16,1,16,0.01
2013-12-6,63.5,49.8,37.6,62.0,48.3,36.6,97,95,90,30.16,29.87,11,1,11,0.64
2013-12-7,40.4,35.5,27.6,36.9,31.2,24.1,97,85,68,30.54,30.08,12,1,12,0.08
2013-12-8,32.0,28.5,25.0,31.0,24.3,19.7,96,85,67,30.62,30.33,8,0,8,0.00
2013-12-9,37.2,35.1,32.0,36.4,34.2,31.0,97,97,96,30.34,30.01,3,0,9,0.10
2013-12-10,34.2,31.4,23.7,33.1,30.1,20.4,97,95,86,30.19,29.91,8,0,8,0.03
2013-12-11,35.1,23.0,16.4,22.5,19.1,14.9,96,86,52,30.40,30.19,17,0,17,0.02
2013-12-12,29.7,22.4,18.8,20.5,16.4,8.8,93,79,44,30.41,30.21,10,0,10,0.00
2013-12-13,39.1,29.4,15.7,22.5,16.2,9.4,80,58,43,30.34,30.19,13,1,13,0.01
2013-12-14,33.0,30.1,26.8,32.0,25.7,22.0,96,84,75,30.45,29.68,11,1,13,0.00
2013-12-15,39.7,35.2,30.1,36.2,31.6,23.2,97,87,65,29.90,29.55,11,1,13,0.05
2013-12-16,33.8,27.3,19.0,25.2,14.9,9.7,79,60,43,30.26,29.89,19,2,19,0.00
2013-12-17,33.6,27.4,23.6,31.2,23.5,15.1,93,86,62,30.24,29.95,7,0,7,0.00
2013-12-18,38.9,29.6,19.5,26.3,22.2,17.2,94,75,53,30.22,29.96,16,1,16,0.01
2013-12-19,47.3,38.3,24.6,32.3,28.4,20.9,91,68,55,30.23,30.07,8,2,13,0.02
2013-12-20,55.7,43.7,31.0,50.8,34.0,28.8,94,71,47,30.12,29.99,8,1,12,0.00
2013-12-21,68.5,59.5,50.7,59.0,52.5,46.8,88,78,62,30.02,29.90,19,2,19,0.00
2013-12-22,70.9,65.7,62.2,64.6,61.0,57.8,93,85,77,29.98,29.81,24,4,24,0.04
2013-12-23,63.4,55.5,42.7,62.3,53.3,34.3,97,92,72,30.18,29.87,17,1,17,0.72
2013-12-24,42.6,35.9,28.1,35.0,24.8,15.7,76,64,51,30.40,30.13,17,2,17,0.00
2013-12-25,32.8,26.2,19.8,19.1,14.3,8.7,76,61,43,30.57,30.40,6,1,8,0.00
2013-12-26,42.1,28.6,20.6,30.1,22.9,17.1,91,79,59,30.43,30.19,11,1,11,0.00
2013-12-27,47.9,31.6,22.0,24.4,22.0,18.6,93,71,35,30.41,30.30,15,1,15,0.00
2013-12-28,56.9,41.3,24.7,33.1,28.0,20.8,90,62,37,30.32,30.10,19,2,19,0.00
2013-12-29,48.0,43.0,38.9,47.2,38.2,29.5,97,84,60,30.10,29.43,21,1,21,1.14
2013-12-30,45.9,37.9,25.6,41.1,31.2,16.1,96,78,59,30.20,29.74,13,1,13,0.00
2013-12-31,37.4,28.9,20.9,28.3,17.9,13.0,76,63,52,30.33,30.08,10,2,16,0.00
2014-1-1,40.6,29.8,21.1,26.1,19.1,13.4,78,65,49,30.44,30.21,8,1,9,0.00
2014-1-2,34.4,29.4,20.2,29.2,25.8,18.1,93,86,75,30.21,29.65,16,2,16,0.00